createdAt,value
2022-08-08T00:01:17.601Z,102637.34
2022-08-08T00:04:00.272Z,102638.47
2022-08-08T00:06:42.095Z,102650.22
2022-08-08T00:09:22.436Z,102642.19
2022-08-08T00:12:09.422Z,102644.00
2022-08-08T00:14:59.806Z,102644.56
2022-08-08T00:18:02.140Z,102637.22
2022-08-08T00:20:39.704Z,102637.97
2022-08-08T00:23:14.694Z,102636.03
2022-08-08T00:25:51.233Z,102629.19
2022-08-08T00:28:35.828Z,102636.50
2022-08-08T00:32:28.647Z,102626.63
2022-08-08T00:34:46.248Z,102633.75
2022-08-08T00:37:47.765Z,102640.69
2022-08-08T00:41:12.220Z,102636.47
2022-08-08T00:44:14.573Z,102641.38
2022-08-08T00:48:01.663Z,102634.66
2022-08-08T00:51:15.268Z,102629.00
2022-08-08T00:54:37.775Z,102627.63
2022-08-08T00:58:13.539Z,102625.50
2022-08-08T01:00:57.070Z,102622.81
2022-08-08T01:04:42.362Z,102625.28
2022-08-08T01:08:10.938Z,102630.31
2022-08-08T01:11:15.239Z,102620.78
2022-08-08T01:14:54.318Z,102622.81
2022-08-08T01:17:53.255Z,102631.31
2022-08-08T01:20:48.743Z,102627.13
2022-08-08T01:24:16.730Z,102629.69
2022-08-08T01:27:33.009Z,102631.91
2022-08-08T01:32:03.014Z,102621.91
2022-08-08T01:35:11.113Z,102619.34
2022-08-08T01:38:31.336Z,102622.31
2022-08-08T01:41:11.543Z,102622.06
2022-08-08T01:43:53.465Z,102613.22
2022-08-08T01:46:47.423Z,102616.00
2022-08-08T01:49:45.137Z,102619.81
2022-08-08T01:53:28.764Z,102619.97
2022-08-08T01:56:29.927Z,102627.94
2022-08-08T01:58:47.238Z,102611.63
2022-08-08T02:01:30.270Z,102604.91
2022-08-08T02:04:25.743Z,102618.00
2022-08-08T02:07:04.010Z,102624.88
2022-08-08T02:10:03.472Z,102626.13
2022-08-08T02:12:49.773Z,102629.88
2022-08-08T02:15:31.053Z,102624.72
2022-08-08T02:18:34.204Z,102636.66
2022-08-08T02:21:26.334Z,102639.41
2022-08-08T02:24:03.634Z,102639.56
2022-08-08T02:26:37.569Z,102638.16
2022-08-08T02:29:41.621Z,102636.31
2022-08-08T02:32:32.233Z,102639.50
2022-08-08T02:36:03.794Z,102634.75
2022-08-08T02:39:01.111Z,102635.06
2022-08-08T02:42:36.144Z,102643.22
2022-08-08T02:46:04.722Z,102632.84
2022-08-08T02:49:48.241Z,102634.47
2022-08-08T02:52:55.505Z,102618.19
2022-08-08T02:56:03.205Z,102631.78
2022-08-08T02:59:26.125Z,102626.03
2022-08-08T03:03:08.043Z,102632.22
2022-08-08T03:06:07.268Z,102634.28
2022-08-08T03:09:23.442Z,102631.97
2022-08-08T03:13:01.729Z,102645.31
2022-08-08T03:16:35.264Z,102653.19
2022-08-08T03:19:54.275Z,102655.03
2022-08-08T03:22:38.233Z,102662.22
2022-08-08T03:25:18.094Z,102669.66
2022-08-08T03:27:56.303Z,102663.97
2022-08-08T03:30:26.077Z,102663.47
2022-08-08T03:33:55.618Z,102668.50
2022-08-08T03:36:01.279Z,102667.94
2022-08-08T03:38:58.040Z,102666.84
2022-08-08T03:42:12.466Z,102673.38
2022-08-08T03:44:08.732Z,102667.72
2022-08-08T03:46:48.158Z,102669.38
2022-08-08T03:49:57.160Z,102669.66
2022-08-08T03:52:13.123Z,102668.91
2022-08-08T03:55:02.119Z,102666.69
2022-08-08T03:58:36.303Z,102670.25
2022-08-08T04:00:25.962Z,102669.88
2022-08-08T04:03:01.868Z,102674.53
2022-08-08T04:05:35.376Z,102671.22
2022-08-08T04:08:07.338Z,102675.28
2022-08-08T04:10:37.480Z,102681.13
2022-08-08T04:13:18.042Z,102678.72
2022-08-08T04:16:03.984Z,102678.50
2022-08-08T04:18:38.187Z,102684.22
2022-08-08T04:21:13.576Z,102688.41
2022-08-08T04:24:11.628Z,102688.88
2022-08-08T04:26:56.769Z,102691.03
2022-08-08T04:29:27.552Z,102689.88
2022-08-08T04:32:07.355Z,102691.69
2022-08-08T04:34:49.185Z,102689.16
2022-08-08T04:37:31.710Z,102683.63
2022-08-08T04:40:05.153Z,102692.84
2022-08-08T04:42:36.968Z,102685.88
2022-08-08T04:45:10.054Z,102694.31
2022-08-08T04:47:43.615Z,102695.84
2022-08-08T04:50:25.169Z,102697.22
2022-08-08T04:53:14.261Z,102694.41
2022-08-08T04:55:56.046Z,102697.91
2022-08-08T04:58:25.018Z,102700.53
2022-08-08T05:00:56.901Z,102702.66
2022-08-08T05:04:07.438Z,102703.78
2022-08-08T05:06:18.595Z,102695.69
2022-08-08T05:08:54.292Z,102699.75
2022-08-08T05:11:26.157Z,102696.84
2022-08-08T05:14:00.870Z,102704.56
2022-08-08T05:16:51.535Z,102698.06
2022-08-08T05:20:09.148Z,102704.63
2022-08-08T05:22:13.472Z,102701.31
2022-08-08T05:24:48.316Z,102694.47
2022-08-08T05:27:17.591Z,102703.13
2022-08-08T05:29:51.821Z,102705.09
2022-08-08T05:32:24.819Z,102705.56
2022-08-08T05:34:59.548Z,102702.13
2022-08-08T05:37:48.948Z,102701.00
2022-08-08T05:40:27.901Z,102709.69
2022-08-08T05:43:38.512Z,102699.97
2022-08-08T05:46:03.746Z,102706.78
2022-08-08T05:48:35.973Z,102712.31
2022-08-08T05:51:14.708Z,102709.31
2022-08-08T05:54:24.919Z,102707.50
2022-08-08T05:56:42.300Z,102707.09
2022-08-08T05:59:58.878Z,102712.25
2022-08-08T06:02:48.714Z,102714.84
2022-08-08T06:05:34.760Z,102724.75
2022-08-08T06:08:09.362Z,102714.56
2022-08-08T06:10:41.654Z,102717.38
2022-08-08T06:13:12.390Z,102714.66
2022-08-08T06:15:50.652Z,102717.38
2022-08-08T06:18:30.800Z,102712.19
2022-08-08T06:21:03.701Z,102717.88
2022-08-08T06:23:53.421Z,102720.03
2022-08-08T06:26:44.059Z,102723.25
2022-08-08T06:29:48.916Z,102722.00
2022-08-08T06:32:17.464Z,102729.13
2022-08-08T06:35:11.633Z,102725.50
2022-08-08T06:37:51.023Z,102736.56
2022-08-08T06:40:30.107Z,102733.75
2022-08-08T06:43:09.562Z,102722.31
2022-08-08T06:45:44.567Z,102738.06
2022-08-08T06:48:17.986Z,102723.72
2022-08-08T06:50:46.809Z,102731.63
2022-08-08T06:53:39.691Z,102729.66
2022-08-08T06:56:16.588Z,102723.66
2022-08-08T06:58:45.020Z,102730.47
2022-08-08T07:02:17.835Z,102735.28
2022-08-08T07:04:41.521Z,102736.09
2022-08-08T07:07:11.144Z,102732.41
2022-08-08T07:10:02.858Z,102727.69
2022-08-08T07:12:42.805Z,102731.44
2022-08-08T07:15:23.356Z,102735.78
2022-08-08T07:18:35.807Z,102733.84
2022-08-08T07:21:01.880Z,102738.59
2022-08-08T07:24:01.426Z,102743.16
2022-08-08T07:26:36.257Z,102747.09
2022-08-08T07:29:11.681Z,102752.00
2022-08-08T07:31:55.297Z,102748.41
2022-08-08T07:34:31.274Z,102753.47
2022-08-08T07:37:11.544Z,102750.94
2022-08-08T07:39:45.577Z,102758.34
2022-08-08T07:42:33.237Z,102759.25
2022-08-08T07:45:02.766Z,102751.22
2022-08-08T07:47:39.244Z,102758.91
2022-08-08T07:50:09.085Z,102769.75
2022-08-08T07:52:43.950Z,102772.09
2022-08-08T07:55:20.096Z,102769.03
2022-08-08T07:58:05.391Z,102764.69
2022-08-08T08:00:40.636Z,102770.78
2022-08-08T08:03:20.803Z,102775.94
2022-08-08T08:05:53.395Z,102770.63
2022-08-08T08:08:28.963Z,102766.28
2022-08-08T08:11:00.665Z,102772.22
2022-08-08T08:13:42.191Z,102777.13
2022-08-08T08:16:27.604Z,102777.94
2022-08-08T08:19:03.607Z,102776.38
2022-08-08T08:21:52.512Z,102773.19
2022-08-08T08:24:32.026Z,102776.38
2022-08-08T08:27:02.801Z,102780.84
2022-08-08T08:29:33.524Z,102773.38
2022-08-08T08:32:05.606Z,102784.81
2022-08-08T08:34:35.495Z,102788.84
2022-08-08T08:37:08.052Z,102795.38
2022-08-08T08:39:59.793Z,102791.28
2022-08-08T08:42:31.349Z,102796.50
2022-08-08T08:45:21.709Z,102794.91
2022-08-08T08:47:54.475Z,102811.41
2022-08-08T08:50:32.793Z,102814.25
2022-08-08T08:53:45.345Z,102814.63
2022-08-08T08:56:01.337Z,102816.44
2022-08-08T08:58:37.696Z,102816.72
2022-08-08T09:01:13.086Z,102804.75
2022-08-08T09:03:47.799Z,102811.97
2022-08-08T09:06:33.669Z,102813.69
2022-08-08T09:09:26.742Z,102817.56
2022-08-08T09:12:07.718Z,102818.25
2022-08-08T09:14:42.441Z,102817.53
2022-08-08T09:17:18.465Z,102811.78
2022-08-08T09:21:59.989Z,102815.69
2022-08-08T09:22:36.693Z,102807.16
2022-08-08T09:25:10.354Z,102814.97
2022-08-08T09:27:56.192Z,102816.34
2022-08-08T09:30:29.654Z,102809.56
2022-08-08T09:33:12.159Z,102803.13
2022-08-08T09:35:51.309Z,102803.06
2022-08-08T09:38:53.324Z,102806.44
2022-08-08T09:42:14.501Z,102808.06
2022-08-08T09:44:55.454Z,102810.25
2022-08-08T09:48:02.083Z,102799.06
2022-08-08T09:50:19.749Z,102803.28
2022-08-08T09:52:56.317Z,102798.81
2022-08-08T09:55:31.149Z,102800.00
2022-08-08T09:58:27.756Z,102809.38
2022-08-08T10:01:15.314Z,102806.78
2022-08-08T10:03:58.324Z,102798.50
2022-08-08T10:06:35.570Z,102808.50
2022-08-08T10:09:05.126Z,102806.00
2022-08-08T10:12:27.401Z,102805.19
2022-08-08T10:14:39.184Z,102804.13
2022-08-08T10:17:57.195Z,102815.94
2022-08-08T10:20:01.723Z,102808.78
2022-08-08T10:22:37.165Z,102820.50
2022-08-08T10:25:25.829Z,102814.31
2022-08-08T10:28:04.986Z,102813.63
2022-08-08T10:31:01.008Z,102816.41
2022-08-08T10:33:38.037Z,102814.50
2022-08-08T10:36:20.602Z,102815.28
2022-08-08T10:38:58.729Z,102820.09
2022-08-08T10:41:35.409Z,102810.84
2022-08-08T10:44:06.843Z,102813.94
2022-08-08T10:46:35.313Z,102806.59
2022-08-08T10:49:03.674Z,102814.75
2022-08-08T10:51:47.299Z,102808.16
2022-08-08T10:54:26.936Z,102803.78
2022-08-08T10:56:58.840Z,102795.50
2022-08-08T10:59:31.026Z,102805.50
2022-08-08T11:02:00.281Z,102798.41
2022-08-08T11:04:39.061Z,102797.75
2022-08-08T11:07:15.028Z,102795.66
2022-08-08T11:10:01.500Z,102799.94
2022-08-08T11:12:30.814Z,102792.53
2022-08-08T11:15:07.518Z,102791.03
2022-08-08T11:18:00.689Z,102799.28
2022-08-08T11:20:28.747Z,102787.22
2022-08-08T11:22:58.981Z,102787.38
2022-08-08T11:25:51.857Z,102789.16
2022-08-08T11:28:29.522Z,102781.63
2022-08-08T11:31:03.933Z,102791.06
2022-08-08T11:33:53.152Z,102794.94
2022-08-08T11:36:29.076Z,102796.31
2022-08-08T11:38:58.515Z,102788.38
2022-08-08T11:41:33.532Z,102790.19
2022-08-08T11:44:05.856Z,102781.41
2022-08-08T11:46:35.307Z,102787.09
2022-08-08T11:49:11.335Z,102779.81
2022-08-08T11:51:49.944Z,102780.34
2022-08-08T11:54:33.566Z,102775.47
2022-08-08T11:57:23.946Z,102778.81
2022-08-08T12:00:02.553Z,102785.34
2022-08-08T12:02:46.907Z,102779.38
2022-08-08T12:05:16.166Z,102777.75
2022-08-08T12:07:53.100Z,102773.22
2022-08-08T12:10:23.874Z,102776.25
2022-08-08T12:13:06.098Z,102777.25
2022-08-08T12:15:41.949Z,102768.94
2022-08-08T12:18:21.426Z,102766.09
2022-08-08T12:20:53.110Z,102772.47
2022-08-08T12:23:43.880Z,102771.03
2022-08-08T12:26:28.509Z,102773.03
2022-08-08T12:29:40.759Z,102757.44
2022-08-08T12:32:19.687Z,102765.19
2022-08-08T12:35:13.348Z,102766.31
2022-08-08T12:37:48.140Z,102768.34
2022-08-08T12:40:54.230Z,102761.06
2022-08-08T12:43:32.781Z,102769.25
2022-08-08T12:46:19.339Z,102765.28
2022-08-08T12:49:25.787Z,102770.16
2022-08-08T12:51:58.821Z,102760.09
2022-08-08T12:54:33.096Z,102767.53
2022-08-08T12:57:17.282Z,102770.47
2022-08-08T13:00:04.563Z,102771.66
2022-08-08T13:02:51.841Z,102773.09
2022-08-08T13:05:26.887Z,102772.09
2022-08-08T13:08:17.749Z,102768.31
2022-08-08T13:10:56.383Z,102768.47
2022-08-08T13:13:35.366Z,102765.28
2022-08-08T13:16:32.378Z,102765.78
2022-08-08T13:19:13.916Z,102766.81
2022-08-08T13:22:04.515Z,102770.47
2022-08-08T13:24:46.435Z,102761.34
2022-08-08T13:27:21.986Z,102775.34
2022-08-08T13:29:53.239Z,102769.97
2022-08-08T13:32:28.598Z,102776.19
2022-08-08T13:34:59.203Z,102782.72
2022-08-08T13:38:04.912Z,102766.03
2022-08-08T13:40:27.326Z,102772.88
2022-08-08T13:42:57.774Z,102772.16
2022-08-08T13:45:27.333Z,102766.09
2022-08-08T13:47:59.787Z,102767.66
2022-08-08T13:50:43.300Z,102770.19
2022-08-08T13:53:28.278Z,102768.69
2022-08-08T13:56:05.854Z,102766.44
2022-08-08T13:58:34.632Z,102769.69
2022-08-08T14:01:16.480Z,102770.13
2022-08-08T14:03:56.385Z,102762.44
2022-08-08T14:06:32.787Z,102756.56
2022-08-08T14:09:25.489Z,102762.59
2022-08-08T14:11:51.648Z,102761.44
2022-08-08T14:14:25.567Z,102760.13
2022-08-08T14:16:57.324Z,102762.06
2022-08-08T14:19:58.155Z,102763.88
2022-08-08T14:22:27.250Z,102763.44
2022-08-08T14:24:59.916Z,102762.13
2022-08-08T14:27:33.354Z,102769.03
2022-08-08T14:30:18.176Z,102768.31
2022-08-08T14:32:52.811Z,102765.72
2022-08-08T14:35:35.171Z,102768.50
2022-08-08T14:38:33.059Z,102761.28
2022-08-08T14:40:59.472Z,102768.63
2022-08-08T14:44:02.730Z,102767.03
2022-08-08T14:46:30.881Z,102761.91
2022-08-08T14:49:09.230Z,102762.75
2022-08-08T14:51:52.385Z,102756.84
2022-08-08T14:54:29.206Z,102760.84
2022-08-08T14:56:59.153Z,102757.38
2022-08-08T14:59:50.218Z,102750.69
2022-08-08T15:02:25.613Z,102750.25
2022-08-08T15:05:08.229Z,102764.75
2022-08-08T15:07:40.411Z,102757.38
2022-08-08T15:10:13.091Z,102757.91
2022-08-08T15:12:41.908Z,102756.88
2022-08-08T15:15:11.579Z,102756.56
2022-08-08T15:17:49.346Z,102755.31
2022-08-08T15:20:19.345Z,102752.16
2022-08-08T15:22:47.833Z,102747.97
2022-08-08T15:25:28.953Z,102749.41
2022-08-08T15:28:32.630Z,102752.16
2022-08-08T15:30:48.881Z,102745.28
2022-08-08T15:33:38.595Z,102749.41
2022-08-08T15:36:10.260Z,102742.25
2022-08-08T15:38:50.259Z,102741.63
2022-08-08T15:41:24.561Z,102741.34
2022-08-08T15:44:00.817Z,102735.31
2022-08-08T15:46:35.074Z,102733.38
2022-08-08T15:49:05.205Z,102738.59
2022-08-08T15:51:34.267Z,102735.69
2022-08-08T15:54:04.253Z,102748.31
2022-08-08T15:56:34.111Z,102743.38
2022-08-08T15:59:02.352Z,102737.25
2022-08-08T16:01:40.788Z,102732.00
2022-08-08T16:04:19.553Z,102739.78
2022-08-08T16:06:50.921Z,102736.94
2022-08-08T16:13:14.030Z,102736.22
2022-08-08T16:13:20.430Z,102729.06
2022-08-08T16:14:58.395Z,102736.38
2022-08-08T16:17:57.828Z,102728.81
2022-08-08T16:20:15.209Z,102734.88
2022-08-08T16:22:50.102Z,102732.28
2022-08-08T16:25:19.859Z,102726.06
2022-08-08T16:27:56.974Z,102741.03
2022-08-08T16:30:36.366Z,102738.50
2022-08-08T16:33:04.968Z,102734.81
2022-08-08T16:35:34.113Z,102739.13
2022-08-08T16:38:06.273Z,102733.38
2022-08-08T16:40:36.989Z,102740.31
2022-08-08T16:43:09.949Z,102739.00
2022-08-08T16:46:36.691Z,102735.19
2022-08-08T16:48:26.891Z,102735.47
2022-08-08T16:51:00.692Z,102737.69
2022-08-08T16:55:02.812Z,102741.50
2022-08-08T16:56:17.982Z,102739.72
2022-08-08T16:58:49.466Z,102735.53
2022-08-08T17:01:17.915Z,102722.97
2022-08-08T17:04:00.310Z,102742.00
2022-08-08T17:06:36.149Z,102733.94
2022-08-08T17:09:06.783Z,102740.19
2022-08-08T17:11:38.894Z,102747.22
2022-08-08T17:14:19.440Z,102741.06
2022-08-08T17:16:57.744Z,102742.19
2022-08-08T17:19:28.839Z,102748.22
2022-08-08T17:22:01.320Z,102745.28
2022-08-08T17:24:31.373Z,102747.22
2022-08-08T17:27:01.995Z,102748.94
2022-08-08T17:29:36.578Z,102753.63
2022-08-08T17:32:12.225Z,102752.63
2022-08-08T17:35:00.147Z,102755.25
2022-08-08T17:37:32.806Z,102767.41
2022-08-08T17:40:05.646Z,102765.19
2022-08-08T17:42:47.264Z,102770.47
2022-08-08T17:45:23.670Z,102782.13
2022-08-08T17:47:54.774Z,102777.44
2022-08-08T17:50:24.775Z,102772.66
2022-08-08T17:52:54.138Z,102773.25
2022-08-08T17:56:06.537Z,102773.09
2022-08-08T17:58:15.177Z,102781.63
2022-08-08T18:00:47.568Z,102771.34
2022-08-08T18:03:24.413Z,102784.91
2022-08-08T18:05:52.984Z,102784.06
2022-08-08T18:08:38.373Z,102790.69
2022-08-08T18:11:15.270Z,102787.22
2022-08-08T18:13:47.209Z,102785.19
2022-08-08T18:16:23.685Z,102788.34
2022-08-08T18:18:57.573Z,102784.38
2022-08-08T18:21:59.146Z,102787.28
2022-08-08T18:24:21.488Z,102787.41
2022-08-08T18:26:55.863Z,102796.66
2022-08-08T18:29:30.006Z,102789.81
2022-08-08T18:32:05.507Z,102789.31
2022-08-08T18:34:36.261Z,102789.47
2022-08-08T18:37:07.988Z,102798.38
2022-08-08T18:39:41.097Z,102801.00
2022-08-08T18:42:14.357Z,102791.44
2022-08-08T18:44:54.814Z,102797.13
2022-08-08T18:47:28.047Z,102801.38
2022-08-08T18:50:02.566Z,102802.81
2022-08-08T18:52:33.852Z,102802.41
2022-08-08T18:55:10.654Z,102801.91
2022-08-08T18:57:44.579Z,102797.19
2022-08-08T19:00:20.393Z,102805.31
2022-08-08T19:02:55.687Z,102812.81
2022-08-08T19:05:37.326Z,102809.44
2022-08-08T19:08:24.617Z,102811.47
2022-08-08T19:10:59.532Z,102817.69
2022-08-08T19:13:38.459Z,102819.81
2022-08-08T19:16:19.050Z,102823.00
2022-08-08T19:19:00.474Z,102821.69
2022-08-08T19:21:33.178Z,102817.91
2022-08-08T19:24:05.423Z,102832.66
2022-08-08T19:26:35.471Z,102837.44
2022-08-08T19:29:06.395Z,102822.72
2022-08-08T19:31:36.004Z,102833.19
2022-08-08T19:34:36.306Z,102832.84
2022-08-08T19:36:58.752Z,102830.53
2022-08-08T19:39:35.415Z,102842.03
2022-08-08T19:42:06.603Z,102842.06
2022-08-08T19:44:43.007Z,102841.25
2022-08-08T19:47:12.460Z,102849.41
2022-08-08T19:49:43.311Z,102852.84
2022-08-08T19:52:13.473Z,102856.16
2022-08-08T19:54:43.283Z,102853.34
2022-08-08T19:57:14.391Z,102855.47
2022-08-08T19:59:44.717Z,102855.59
2022-08-08T20:02:13.211Z,102863.53
2022-08-08T20:04:45.607Z,102861.47
2022-08-08T20:08:39.312Z,102860.94
2022-08-08T20:10:03.037Z,102863.28
2022-08-08T20:12:32.052Z,102864.91
2022-08-08T20:15:14.611Z,102871.22
2022-08-08T20:17:47.822Z,102876.59
2022-08-08T20:20:22.304Z,102874.47
2022-08-08T20:22:53.912Z,102878.59
2022-08-08T20:25:24.647Z,102888.50
2022-08-08T20:27:56.073Z,102883.56
2022-08-08T20:30:52.801Z,102887.03
2022-08-08T20:35:58.345Z,102887.03
2022-08-08T20:38:32.956Z,102887.78
2022-08-08T20:41:05.595Z,102886.66
2022-08-08T20:43:49.698Z,102886.03
2022-08-08T20:46:21.223Z,102894.19
2022-08-08T20:48:58.504Z,102882.28
2022-08-08T20:51:32.310Z,102887.75
2022-08-08T20:54:07.673Z,102882.03
2022-08-08T20:57:05.814Z,102878.53
2022-08-08T20:59:41.472Z,102887.34
2022-08-08T21:02:19.734Z,102885.50
2022-08-08T21:05:00.317Z,102889.44
2022-08-08T21:08:33.563Z,102887.94
2022-08-08T21:10:21.258Z,102886.53
2022-08-08T21:12:56.379Z,102894.31
2022-08-08T21:16:06.370Z,102888.00
2022-08-08T21:18:15.130Z,102902.59
2022-08-08T21:20:49.111Z,102902.78
2022-08-08T21:23:58.641Z,102899.94
2022-08-08T21:26:10.742Z,102902.00
2022-08-08T21:28:39.770Z,102896.97
2022-08-08T21:31:22.176Z,102896.56
2022-08-08T21:33:52.231Z,102898.31
2022-08-08T21:36:28.820Z,102891.75
2022-08-08T21:39:00.119Z,102887.97
2022-08-08T21:41:43.029Z,102876.28
2022-08-08T21:44:22.407Z,102882.84
2022-08-08T21:48:06.188Z,102878.28
2022-08-08T21:49:39.410Z,102885.53
2022-08-08T21:54:34.187Z,102890.59
2022-08-08T21:55:24.186Z,102890.34
2022-08-08T21:58:05.693Z,102892.91
2022-08-08T22:00:40.654Z,102894.75
2022-08-08T22:03:10.897Z,102894.06
2022-08-08T22:05:43.680Z,102898.91
2022-08-08T22:08:13.310Z,102899.91
2022-08-08T22:10:45.241Z,102902.28
2022-08-08T22:13:19.546Z,102904.63
2022-08-08T22:15:59.794Z,102901.50
2022-08-08T22:18:31.583Z,102902.06
2022-08-08T22:21:13.802Z,102896.66
2022-08-08T22:23:50.851Z,102893.81
2022-08-08T22:26:29.568Z,102891.75
2022-08-08T22:29:13.632Z,102900.94
2022-08-08T22:31:58.611Z,102910.75
2022-08-08T22:34:32.088Z,102907.44
2022-08-08T22:37:00.527Z,102914.34
2022-08-08T22:39:46.390Z,102914.66
2022-08-08T22:42:27.498Z,102911.28
2022-08-08T22:45:00.861Z,102914.44
2022-08-08T22:47:37.953Z,102917.19
2022-08-08T22:50:26.298Z,102917.38
2022-08-08T22:54:15.638Z,102907.00
2022-08-08T22:55:59.191Z,102909.19
2022-08-08T22:58:33.023Z,102905.28
2022-08-08T23:01:16.789Z,102911.53
2022-08-08T23:03:54.688Z,102906.56
2022-08-08T23:06:24.325Z,102908.97
2022-08-08T23:08:55.752Z,102912.28
2022-08-08T23:12:17.373Z,102906.81
2022-08-08T23:14:19.215Z,102905.28
2022-08-08T23:16:53.291Z,102910.72
2022-08-08T23:19:26.519Z,102921.34
2022-08-08T23:21:54.845Z,102917.38
2022-08-08T23:24:23.634Z,102919.53
2022-08-08T23:26:53.295Z,102922.81
2022-08-08T23:29:27.153Z,102923.78
2022-08-08T23:31:58.513Z,102925.09
2022-08-08T23:34:29.394Z,102933.34
2022-08-08T23:37:00.609Z,102932.94
2022-08-08T23:39:41.436Z,102936.59
2022-08-08T23:42:17.438Z,102934.47
2022-08-08T23:44:51.954Z,102923.44
2022-08-08T23:49:04.023Z,102923.63
2022-08-08T23:50:30.179Z,102927.78
2022-08-08T23:53:03.646Z,102940.06
2022-08-08T23:55:42.071Z,102926.47
2022-08-08T23:58:22.328Z,102932.03
